createdAt,value
2022-07-28T00:04:37.148Z,14.72
2022-07-28T00:09:39.836Z,14.59
2022-07-28T00:14:42.844Z,14.45
2022-07-28T00:19:46.918Z,14.55
2022-07-28T00:24:49.684Z,14.42
2022-07-28T00:29:53.004Z,14.39
2022-07-28T00:34:57.058Z,14.31
2022-07-28T00:39:59.708Z,14.30
2022-07-28T00:45:02.448Z,14.17
2022-07-28T00:50:07.365Z,14.12
2022-07-28T00:55:11.037Z,14.08
2022-07-28T01:00:14.341Z,14.12
2022-07-28T01:05:18.621Z,14.10
2022-07-28T01:10:46.413Z,14.00
2022-07-28T01:15:54.144Z,14.00
2022-07-28T01:21:03.738Z,13.92
2022-07-28T01:26:15.259Z,13.87
2022-07-28T01:31:23.581Z,13.70
2022-07-28T01:36:30.066Z,13.72
2022-07-28T01:41:33.766Z,13.73
2022-07-28T01:46:38.543Z,13.64
2022-07-28T01:51:41.863Z,13.62
2022-07-28T01:56:45.301Z,13.51
2022-07-28T02:01:50.845Z,13.43
2022-07-28T02:06:54.072Z,13.36
2022-07-28T02:11:57.213Z,13.23
2022-07-28T02:17:04.659Z,13.24
2022-07-28T02:22:08.064Z,13.25
2022-07-28T02:27:18.222Z,13.17
2022-07-28T02:32:28.674Z,13.10
2022-07-28T02:37:36.193Z,12.76
2022-07-28T02:42:39.379Z,12.56
2022-07-28T02:47:46.962Z,12.63
2022-07-28T02:52:50.740Z,12.80
2022-07-28T02:57:56.774Z,12.47
2022-07-28T03:03:01.510Z,12.54
2022-07-28T03:08:04.287Z,12.62
2022-07-28T03:13:08.030Z,12.67
2022-07-28T03:18:12.179Z,12.65
2022-07-28T03:23:15.253Z,12.72
2022-07-28T03:28:21.261Z,12.72
2022-07-28T03:33:25.653Z,12.74
2022-07-28T03:38:34.137Z,12.69
2022-07-28T03:43:37.032Z,12.70
2022-07-28T03:48:41.228Z,12.61
2022-07-28T03:53:44.296Z,12.39
2022-07-28T03:58:47.025Z,12.50
2022-07-28T04:03:51.158Z,12.54
2022-07-28T04:08:53.933Z,12.66
2022-07-28T04:13:56.782Z,12.57
2022-07-28T04:19:00.996Z,12.71
2022-07-28T04:24:03.798Z,12.59
2022-07-28T04:29:06.939Z,12.68
2022-07-28T04:34:11.563Z,12.78
2022-07-28T04:39:14.418Z,12.97
2022-07-28T04:44:17.783Z,13.26
2022-07-28T04:49:22.447Z,13.37
2022-07-28T04:54:26.868Z,13.59
2022-07-28T04:59:29.704Z,13.66
2022-07-28T05:04:36.172Z,13.78
2022-07-28T05:09:39.243Z,13.85
2022-07-28T05:14:42.078Z,13.94
2022-07-28T05:19:46.190Z,14.09
2022-07-28T05:24:48.871Z,14.19
2022-07-28T05:29:51.854Z,14.41
2022-07-28T05:34:56.150Z,14.72
2022-07-28T05:39:59.046Z,14.82
2022-07-28T05:45:01.806Z,15.01
2022-07-28T05:50:10.736Z,15.24
2022-07-28T05:55:14.034Z,15.51
2022-07-28T06:00:18.590Z,15.75
2022-07-28T06:05:23.684Z,15.91
2022-07-28T06:10:27.792Z,16.04
2022-07-28T06:15:30.596Z,16.18
2022-07-28T06:20:35.436Z,16.30
2022-07-28T06:25:38.676Z,16.40
2022-07-28T06:30:41.559Z,16.45
2022-07-28T06:35:48.312Z,16.40
2022-07-28T06:40:54.381Z,16.36
2022-07-28T06:45:57.241Z,16.30
2022-07-28T06:51:01.316Z,16.30
2022-07-28T06:56:05.453Z,16.38
2022-07-28T07:01:09.000Z,16.48
2022-07-28T07:06:13.336Z,16.60
2022-07-28T07:11:16.150Z,16.71
2022-07-28T07:16:19.176Z,16.83
2022-07-28T07:21:23.435Z,16.90
2022-07-28T07:26:28.999Z,17.06
2022-07-28T07:31:33.317Z,17.20
2022-07-28T07:36:37.393Z,17.40
2022-07-28T07:41:58.722Z,17.59
2022-07-28T07:47:03.326Z,17.80
2022-07-28T07:52:09.458Z,17.95
2022-07-28T07:57:12.215Z,18.18
2022-07-28T08:02:14.921Z,18.49
2022-07-28T08:07:22.001Z,18.65
2022-07-28T08:12:25.691Z,18.83
2022-07-28T08:17:28.777Z,19.02
2022-07-28T08:22:32.918Z,19.18
2022-07-28T08:27:35.715Z,19.26
2022-07-28T08:32:39.156Z,19.42
2022-07-28T08:37:43.535Z,19.37
2022-07-28T08:42:51.906Z,19.49
2022-07-28T08:48:12.760Z,19.62
2022-07-28T08:53:17.018Z,19.71
2022-07-28T08:58:20.331Z,19.90
2022-07-28T09:03:23.321Z,20.07
2022-07-28T09:08:27.735Z,20.19
2022-07-28T09:13:31.085Z,20.34
2022-07-28T09:18:33.973Z,20.46
2022-07-28T09:23:45.581Z,20.39
2022-07-28T09:28:54.030Z,20.51
2022-07-28T09:34:00.437Z,20.60
2022-07-28T09:39:05.035Z,20.68
2022-07-28T09:44:19.122Z,21.10
2022-07-28T09:49:28.074Z,21.17
2022-07-28T09:54:37.379Z,21.06
2022-07-28T09:59:44.199Z,21.08
2022-07-28T10:04:55.148Z,21.52
2022-07-28T10:10:01.183Z,21.54
2022-07-28T10:15:34.368Z,21.56
2022-07-28T10:20:38.262Z,21.50
2022-07-28T10:25:44.665Z,21.92
2022-07-28T10:30:48.916Z,22.10
2022-07-28T10:35:55.304Z,22.04
2022-07-28T10:41:03.015Z,22.37
2022-07-28T10:46:08.861Z,22.45
2022-07-28T10:51:18.824Z,22.37
2022-07-28T10:56:31.479Z,22.71
2022-07-28T11:01:48.284Z,22.89
2022-07-28T11:06:52.305Z,22.89
2022-07-28T11:11:57.934Z,22.93
2022-07-28T11:17:24.381Z,23.05
2022-07-28T11:22:36.108Z,23.39
2022-07-28T11:28:05.390Z,23.51
2022-07-28T11:33:09.228Z,23.50
2022-07-28T11:38:13.841Z,23.81
2022-07-28T11:43:37.516Z,24.08
2022-07-28T11:48:43.561Z,24.05
2022-07-28T11:53:47.755Z,24.30
2022-07-28T11:58:57.492Z,24.50
2022-07-28T12:04:00.976Z,24.63
2022-07-28T12:09:06.178Z,25.28
2022-07-28T12:14:12.210Z,26.40
2022-07-28T12:19:17.447Z,27.49
2022-07-28T12:24:28.013Z,27.88
2022-07-28T12:29:35.663Z,28.58
2022-07-28T12:34:40.510Z,29.83
2022-07-28T12:39:44.256Z,32.95
2022-07-28T12:44:51.280Z,36.38
2022-07-28T12:50:10.016Z,38.55
2022-07-28T12:55:23.133Z,38.35
2022-07-28T13:00:30.863Z,35.23
2022-07-28T13:05:55.378Z,32.28
2022-07-28T13:10:59.035Z,31.72
2022-07-28T13:16:23.042Z,31.55
2022-07-28T13:21:38.791Z,31.23
2022-07-28T13:26:44.463Z,31.22
2022-07-28T13:31:48.961Z,30.77
2022-07-28T13:36:52.380Z,30.85
2022-07-28T13:41:59.108Z,30.09
2022-07-28T13:47:05.835Z,30.50
2022-07-28T13:52:12.814Z,30.12
2022-07-28T13:57:16.655Z,30.09
2022-07-28T14:02:22.065Z,30.05
2022-07-28T14:07:30.134Z,30.26
2022-07-28T14:12:32.928Z,30.35
2022-07-28T14:17:46.210Z,29.94
2022-07-28T14:22:49.253Z,34.85
2022-07-28T14:27:52.582Z,38.60
2022-07-28T14:32:57.014Z,39.64
2022-07-28T14:43:22.572Z,35.14
2022-07-28T14:48:30.899Z,37.41
2022-07-28T14:53:35.111Z,39.51
2022-07-28T14:58:43.439Z,37.33
2022-07-28T15:03:47.453Z,34.71
2022-07-28T15:08:50.220Z,36.32
2022-07-28T15:13:52.943Z,37.75
2022-07-28T15:18:57.140Z,36.58
2022-07-28T15:23:59.900Z,33.25
2022-07-28T15:29:02.727Z,31.88
2022-07-28T15:34:06.969Z,31.01
2022-07-28T15:39:14.790Z,30.73
2022-07-28T15:44:22.351Z,31.38
2022-07-28T15:49:30.274Z,31.32
2022-07-28T15:54:33.054Z,31.57
2022-07-28T15:59:49.063Z,32.47
2022-07-28T16:04:54.569Z,34.59
2022-07-28T16:09:57.913Z,36.84
2022-07-28T16:15:00.747Z,35.13
2022-07-28T16:20:05.695Z,32.86
2022-07-28T16:25:16.644Z,32.28
2022-07-28T16:30:20.057Z,32.18
2022-07-28T16:35:24.173Z,31.62
2022-07-28T16:40:27.053Z,30.93
2022-07-28T16:45:29.832Z,30.42
2022-07-28T16:50:35.476Z,29.53
2022-07-28T16:55:38.229Z,29.19
2022-07-28T17:00:41.020Z,28.64
2022-07-28T17:05:45.328Z,28.35
2022-07-28T17:10:48.487Z,28.18
2022-07-28T17:15:51.272Z,28.06
2022-07-28T17:20:58.749Z,27.90
2022-07-28T17:31:26.826Z,28.49
2022-07-28T17:36:33.963Z,28.90
2022-07-28T17:41:37.042Z,29.19
2022-07-28T17:46:39.927Z,28.04
2022-07-28T17:51:45.025Z,27.18
2022-07-28T17:56:49.576Z,26.79
2022-07-28T18:01:52.338Z,26.24
2022-07-28T18:06:56.390Z,25.91
2022-07-28T18:11:59.491Z,25.69
2022-07-28T18:17:02.609Z,25.60
2022-07-28T18:22:06.784Z,25.73
2022-07-28T18:27:09.559Z,25.55
2022-07-28T18:32:14.509Z,25.13
2022-07-28T18:37:18.906Z,24.69
2022-07-28T18:42:21.802Z,24.26
2022-07-28T18:47:25.091Z,23.94
2022-07-28T18:52:29.299Z,23.66
2022-07-28T18:57:32.030Z,23.42
2022-07-28T19:02:34.845Z,23.24
2022-07-28T19:07:38.994Z,23.07
2022-07-28T19:12:41.825Z,22.93
2022-07-28T19:17:44.767Z,22.80
2022-07-28T19:22:48.905Z,22.70
2022-07-28T19:27:54.154Z,22.59
2022-07-28T19:32:56.930Z,22.55
2022-07-28T19:38:02.642Z,22.55
2022-07-28T19:43:05.390Z,22.50
2022-07-28T19:48:08.343Z,22.48
2022-07-28T19:53:14.864Z,22.42
2022-07-28T19:58:18.112Z,22.27
2022-07-28T20:04:01.474Z,22.10
2022-07-28T20:08:45.541Z,21.96
2022-07-28T20:13:49.436Z,21.82
2022-07-28T20:18:52.879Z,21.62
2022-07-28T20:23:57.979Z,21.45
2022-07-28T20:29:00.941Z,21.30
2022-07-28T20:34:06.635Z,21.18
2022-07-28T20:39:34.433Z,21.08
2022-07-28T20:44:33.867Z,20.99
2022-07-28T20:49:36.943Z,20.89
2022-07-28T20:54:41.345Z,20.80
2022-07-28T20:59:44.305Z,20.70
2022-07-28T21:04:50.295Z,20.63
2022-07-28T21:09:54.871Z,20.61
2022-07-28T21:14:57.745Z,20.53
2022-07-28T21:20:00.430Z,20.40
2022-07-28T21:25:05.198Z,20.30
2022-07-28T21:30:08.989Z,20.23
2022-07-28T21:35:14.356Z,20.14
2022-07-28T21:40:18.705Z,20.08
2022-07-28T21:45:22.406Z,20.04
2022-07-28T21:50:25.321Z,19.95
2022-07-28T21:55:29.737Z,19.87
2022-07-28T22:00:32.851Z,19.90
2022-07-28T22:05:35.652Z,19.82
2022-07-28T22:10:39.955Z,19.81
2022-07-28T22:15:42.703Z,19.79
2022-07-28T22:20:45.794Z,19.77
2022-07-28T22:25:49.856Z,19.73
2022-07-28T22:30:53.337Z,19.66
2022-07-28T22:35:56.120Z,19.61
2022-07-28T22:41:00.697Z,19.58
2022-07-28T22:46:03.636Z,19.50
2022-07-28T22:51:10.912Z,19.47
2022-07-28T22:56:14.996Z,19.37
2022-07-28T23:01:17.847Z,19.32
2022-07-28T23:06:20.886Z,19.31
2022-07-28T23:11:25.148Z,19.28
2022-07-28T23:16:28.056Z,19.32
2022-07-28T23:21:30.837Z,19.31
2022-07-28T23:26:34.907Z,19.26
2022-07-28T23:31:37.704Z,19.27
2022-07-28T23:36:40.504Z,19.28
2022-07-28T23:41:44.581Z,19.25
2022-07-28T23:46:47.343Z,19.28
2022-07-28T23:51:50.114Z,19.24
2022-07-28T23:56:56.502Z,19.22
